sensor_id;sensor_type;location;lat;lon;timestamp;P1;durP1;ratioP1;P2;durP2;ratioP2
64938;SDS011;51453;47.738;7.420;2022-07-23T00:02:05;15.70;;;14.02;;
64938;SDS011;51453;47.738;7.420;2022-07-23T00:04:32;18.88;;;15.52;;
64938;SDS011;51453;47.738;7.420;2022-07-23T00:06:58;18.65;;;16.63;;
64938;SDS011;51453;47.738;7.420;2022-07-23T00:09:24;22.63;;;16.48;;
64938;SDS011;51453;47.738;7.420;2022-07-23T00:11:49;23.13;;;17.60;;
64938;SDS011;51453;47.738;7.420;2022-07-23T00:14:15;20.63;;;16.35;;
64938;SDS011;51453;47.738;7.420;2022-07-23T00:16:41;18.77;;;15.25;;
64938;SDS011;51453;47.738;7.420;2022-07-23T00:19:06;17.95;;;16.08;;
64938;SDS011;51453;47.738;7.420;2022-07-23T00:21:32;24.27;;;16.92;;
64938;SDS011;51453;47.738;7.420;2022-07-23T00:23:58;20.83;;;17.02;;
64938;SDS011;51453;47.738;7.420;2022-07-23T00:26:24;16.55;;;13.50;;
64938;SDS011;51453;47.738;7.420;2022-07-23T00:28:49;19.33;;;16.63;;
64938;SDS011;51453;47.738;7.420;2022-07-23T00:31:15;18.35;;;15.13;;
64938;SDS011;51453;47.738;7.420;2022-07-23T00:33:41;19.17;;;17.10;;
64938;SDS011;51453;47.738;7.420;2022-07-23T00:36:07;22.60;;;16.70;;
64938;SDS011;51453;47.738;7.420;2022-07-23T00:38:33;22.17;;;16.85;;
64938;SDS011;51453;47.738;7.420;2022-07-23T00:40:58;20.08;;;16.60;;
64938;SDS011;51453;47.738;7.420;2022-07-23T00:43:24;22.15;;;17.40;;
64938;SDS011;51453;47.738;7.420;2022-07-23T00:45:50;19.98;;;16.10;;
64938;SDS011;51453;47.738;7.420;2022-07-23T00:48:16;19.40;;;14.80;;
64938;SDS011;51453;47.738;7.420;2022-07-23T00:50:42;19.50;;;17.40;;
64938;SDS011;51453;47.738;7.420;2022-07-23T00:53:08;18.52;;;16.45;;
64938;SDS011;51453;47.738;7.420;2022-07-23T00:55:35;22.30;;;17.95;;
64938;SDS011;51453;47.738;7.420;2022-07-23T00:58:01;19.98;;;15.75;;
64938;SDS011;51453;47.738;7.420;2022-07-23T01:00:27;19.10;;;15.45;;
64938;SDS011;51453;47.738;7.420;2022-07-23T01:02:53;23.70;;;16.58;;
64938;SDS011;51453;47.738;7.420;2022-07-23T01:05:19;18.80;;;16.77;;
64938;SDS011;51453;47.738;7.420;2022-07-23T01:07:48;25.38;;;19.13;;
64938;SDS011;51453;47.738;7.420;2022-07-23T01:10:14;22.52;;;18.42;;
64938;SDS011;51453;47.738;7.420;2022-07-23T01:15:28;26.90;;;19.85;;
64938;SDS011;51453;47.738;7.420;2022-07-23T01:17:54;23.50;;;19.15;;
64938;SDS011;51453;47.738;7.420;2022-07-23T01:20:20;21.92;;;17.30;;
64938;SDS011;51453;47.738;7.420;2022-07-23T01:22:46;23.10;;;17.85;;
64938;SDS011;51453;47.738;7.420;2022-07-23T01:25:12;20.17;;;16.13;;
64938;SDS011;51453;47.738;7.420;2022-07-23T01:27:38;16.55;;;14.90;;
64938;SDS011;51453;47.738;7.420;2022-07-23T01:30:04;18.35;;;14.85;;
64938;SDS011;51453;47.738;7.420;2022-07-23T01:32:30;18.67;;;14.32;;
64938;SDS011;51453;47.738;7.420;2022-07-23T01:34:56;37.80;;;17.45;;
64938;SDS011;51453;47.738;7.420;2022-07-23T01:37:22;21.52;;;17.27;;
64938;SDS011;51453;47.738;7.420;2022-07-23T01:39:48;25.83;;;16.83;;
64938;SDS011;51453;47.738;7.420;2022-07-23T01:42:13;21.40;;;15.55;;
64938;SDS011;51453;47.738;7.420;2022-07-23T01:44:39;27.63;;;19.33;;
64938;SDS011;51453;47.738;7.420;2022-07-23T01:47:05;31.85;;;21.20;;
64938;SDS011;51453;47.738;7.420;2022-07-23T01:49:31;35.28;;;22.60;;
64938;SDS011;51453;47.738;7.420;2022-07-23T01:51:57;47.60;;;28.17;;
64938;SDS011;51453;47.738;7.420;2022-07-23T01:54:26;54.85;;;30.67;;
64938;SDS011;51453;47.738;7.420;2022-07-23T01:56:56;46.50;;;27.85;;
64938;SDS011;51453;47.738;7.420;2022-07-23T01:59:22;47.08;;;27.90;;
64938;SDS011;51453;47.738;7.420;2022-07-23T02:01:48;45.67;;;29.45;;
64938;SDS011;51453;47.738;7.420;2022-07-23T02:04:16;54.88;;;31.25;;
64938;SDS011;51453;47.738;7.420;2022-07-23T02:06:45;50.60;;;29.20;;
64938;SDS011;51453;47.738;7.420;2022-07-23T02:09:11;60.05;;;31.77;;
64938;SDS011;51453;47.738;7.420;2022-07-23T02:11:37;53.63;;;33.60;;
64938;SDS011;51453;47.738;7.420;2022-07-23T02:14:03;47.45;;;29.23;;
64938;SDS011;51453;47.738;7.420;2022-07-23T02:16:29;52.60;;;32.38;;
64938;SDS011;51453;47.738;7.420;2022-07-23T02:18:54;48.33;;;29.77;;
64938;SDS011;51453;47.738;7.420;2022-07-23T02:21:20;37.75;;;27.13;;
64938;SDS011;51453;47.738;7.420;2022-07-23T02:23:45;38.28;;;27.90;;
64938;SDS011;51453;47.738;7.420;2022-07-23T02:26:11;46.97;;;30.27;;
64938;SDS011;51453;47.738;7.420;2022-07-23T02:28:37;59.53;;;34.85;;
64938;SDS011;51453;47.738;7.420;2022-07-23T02:31:03;50.35;;;30.65;;
64938;SDS011;51453;47.738;7.420;2022-07-23T02:33:29;45.88;;;29.98;;
64938;SDS011;51453;47.738;7.420;2022-07-23T02:35:54;48.08;;;30.20;;
64938;SDS011;51453;47.738;7.420;2022-07-23T02:38:20;49.33;;;31.42;;
64938;SDS011;51453;47.738;7.420;2022-07-23T02:40:46;33.45;;;24.38;;
64938;SDS011;51453;47.738;7.420;2022-07-23T02:43:12;34.47;;;24.20;;
64938;SDS011;51453;47.738;7.420;2022-07-23T02:45:37;29.08;;;21.20;;
64938;SDS011;51453;47.738;7.420;2022-07-23T02:48:03;27.70;;;21.42;;
64938;SDS011;51453;47.738;7.420;2022-07-23T02:50:29;31.80;;;23.42;;
64938;SDS011;51453;47.738;7.420;2022-07-23T02:52:55;32.55;;;24.15;;
64938;SDS011;51453;47.738;7.420;2022-07-23T02:55:20;26.73;;;21.35;;
64938;SDS011;51453;47.738;7.420;2022-07-23T02:57:46;32.78;;;23.38;;
64938;SDS011;51453;47.738;7.420;2022-07-23T03:00:12;34.40;;;24.40;;
64938;SDS011;51453;47.738;7.420;2022-07-23T03:02:38;29.83;;;21.58;;
64938;SDS011;51453;47.738;7.420;2022-07-23T03:05:04;37.30;;;25.90;;
64938;SDS011;51453;47.738;7.420;2022-07-23T03:07:30;33.13;;;21.85;;
64938;SDS011;51453;47.738;7.420;2022-07-23T03:09:56;34.20;;;22.98;;
64938;SDS011;51453;47.738;7.420;2022-07-23T03:12:21;28.35;;;20.83;;
64938;SDS011;51453;47.738;7.420;2022-07-23T03:14:47;32.80;;;23.08;;
64938;SDS011;51453;47.738;7.420;2022-07-23T03:17:13;37.50;;;23.98;;
64938;SDS011;51453;47.738;7.420;2022-07-23T03:19:38;32.55;;;22.27;;
64938;SDS011;51453;47.738;7.420;2022-07-23T03:22:04;36.50;;;23.02;;
64938;SDS011;51453;47.738;7.420;2022-07-23T03:24:30;32.97;;;22.85;;
64938;SDS011;51453;47.738;7.420;2022-07-23T03:27:14;28.55;;;22.38;;
64938;SDS011;51453;47.738;7.420;2022-07-23T03:29:40;31.08;;;22.75;;
64938;SDS011;51453;47.738;7.420;2022-07-23T03:32:06;33.30;;;21.05;;
64938;SDS011;51453;47.738;7.420;2022-07-23T03:34:32;32.20;;;22.95;;
64938;SDS011;51453;47.738;7.420;2022-07-23T03:36:57;30.15;;;21.75;;
64938;SDS011;51453;47.738;7.420;2022-07-23T03:39:23;25.77;;;17.80;;
64938;SDS011;51453;47.738;7.420;2022-07-23T03:41:49;32.78;;;18.13;;
64938;SDS011;51453;47.738;7.420;2022-07-23T03:44:14;25.15;;;18.85;;
64938;SDS011;51453;47.738;7.420;2022-07-23T03:46:40;21.02;;;18.05;;
64938;SDS011;51453;47.738;7.420;2022-07-23T03:49:06;27.15;;;20.83;;
64938;SDS011;51453;47.738;7.420;2022-07-23T03:51:32;38.88;;;24.58;;
64938;SDS011;51453;47.738;7.420;2022-07-23T03:53:57;26.80;;;20.13;;
64938;SDS011;51453;47.738;7.420;2022-07-23T03:56:23;24.27;;;19.38;;
64938;SDS011;51453;47.738;7.420;2022-07-23T03:58:49;28.75;;;21.75;;
64938;SDS011;51453;47.738;7.420;2022-07-23T04:01:15;31.23;;;23.08;;
64938;SDS011;51453;47.738;7.420;2022-07-23T04:03:40;53.90;;;31.02;;
64938;SDS011;51453;47.738;7.420;2022-07-23T04:06:06;32.85;;;23.08;;
64938;SDS011;51453;47.738;7.420;2022-07-23T04:08:32;40.33;;;28.58;;
64938;SDS011;51453;47.738;7.420;2022-07-23T04:10:57;51.05;;;29.42;;
64938;SDS011;51453;47.738;7.420;2022-07-23T04:13:23;38.30;;;27.40;;
64938;SDS011;51453;47.738;7.420;2022-07-23T04:15:49;40.45;;;26.88;;
64938;SDS011;51453;47.738;7.420;2022-07-23T04:18:16;27.50;;;21.98;;
64938;SDS011;51453;47.738;7.420;2022-07-23T04:20:43;32.95;;;24.70;;
64938;SDS011;51453;47.738;7.420;2022-07-23T04:23:09;36.50;;;25.08;;
64938;SDS011;51453;47.738;7.420;2022-07-23T04:25:35;33.47;;;25.42;;
64938;SDS011;51453;47.738;7.420;2022-07-23T04:28:01;25.20;;;18.67;;
64938;SDS011;51453;47.738;7.420;2022-07-23T04:30:27;20.48;;;15.77;;
64938;SDS011;51453;47.738;7.420;2022-07-23T04:32:53;19.75;;;15.73;;
64938;SDS011;51453;47.738;7.420;2022-07-23T04:35:18;24.65;;;18.42;;
64938;SDS011;51453;47.738;7.420;2022-07-23T04:37:44;24.75;;;19.33;;
64938;SDS011;51453;47.738;7.420;2022-07-23T04:40:11;29.08;;;21.23;;
64938;SDS011;51453;47.738;7.420;2022-07-23T04:42:37;23.27;;;18.85;;
64938;SDS011;51453;47.738;7.420;2022-07-23T04:45:03;23.35;;;18.38;;
64938;SDS011;51453;47.738;7.420;2022-07-23T04:47:30;32.30;;;22.10;;
64938;SDS011;51453;47.738;7.420;2022-07-23T04:49:56;27.52;;;21.10;;
64938;SDS011;51453;47.738;7.420;2022-07-23T04:52:22;35.00;;;24.50;;
64938;SDS011;51453;47.738;7.420;2022-07-23T04:54:48;25.48;;;21.05;;
64938;SDS011;51453;47.738;7.420;2022-07-23T04:57:14;31.67;;;23.27;;
64938;SDS011;51453;47.738;7.420;2022-07-23T04:59:40;25.05;;;20.23;;
64938;SDS011;51453;47.738;7.420;2022-07-23T05:02:06;20.13;;;17.90;;
64938;SDS011;51453;47.738;7.420;2022-07-23T05:04:31;24.92;;;19.52;;
64938;SDS011;51453;47.738;7.420;2022-07-23T05:06:57;28.30;;;21.75;;
64938;SDS011;51453;47.738;7.420;2022-07-23T05:09:24;25.58;;;18.85;;
64938;SDS011;51453;47.738;7.420;2022-07-23T05:11:49;26.80;;;20.35;;
64938;SDS011;51453;47.738;7.420;2022-07-23T05:14:15;21.92;;;17.33;;
64938;SDS011;51453;47.738;7.420;2022-07-23T05:16:41;19.02;;;14.88;;
64938;SDS011;51453;47.738;7.420;2022-07-23T05:19:07;25.92;;;15.85;;
64938;SDS011;51453;47.738;7.420;2022-07-23T05:21:32;18.27;;;15.88;;
64938;SDS011;51453;47.738;7.420;2022-07-23T05:23:58;16.95;;;14.30;;
64938;SDS011;51453;47.738;7.420;2022-07-23T05:26:24;16.75;;;13.80;;
64938;SDS011;51453;47.738;7.420;2022-07-23T05:28:50;17.95;;;14.98;;
64938;SDS011;51453;47.738;7.420;2022-07-23T05:31:16;14.40;;;12.65;;
64938;SDS011;51453;47.738;7.420;2022-07-23T05:33:42;11.60;;;9.82;;
64938;SDS011;51453;47.738;7.420;2022-07-23T05:36:08;11.43;;;10.23;;
64938;SDS011;51453;47.738;7.420;2022-07-23T05:38:34;13.18;;;9.77;;
64938;SDS011;51453;47.738;7.420;2022-07-23T05:41:00;14.32;;;9.20;;
64938;SDS011;51453;47.738;7.420;2022-07-23T05:43:27;10.48;;;9.18;;
64938;SDS011;51453;47.738;7.420;2022-07-23T05:45:52;12.35;;;10.27;;
64938;SDS011;51453;47.738;7.420;2022-07-23T05:48:18;15.02;;;10.80;;
64938;SDS011;51453;47.738;7.420;2022-07-23T05:50:44;12.00;;;10.63;;
64938;SDS011;51453;47.738;7.420;2022-07-23T05:53:11;13.57;;;9.98;;
64938;SDS011;51453;47.738;7.420;2022-07-23T05:55:36;10.93;;;9.77;;
64938;SDS011;51453;47.738;7.420;2022-07-23T05:58:02;12.45;;;10.63;;
64938;SDS011;51453;47.738;7.420;2022-07-23T06:00:28;14.65;;;10.80;;
64938;SDS011;51453;47.738;7.420;2022-07-23T06:02:54;12.57;;;11.05;;
64938;SDS011;51453;47.738;7.420;2022-07-23T06:05:20;12.63;;;11.00;;
64938;SDS011;51453;47.738;7.420;2022-07-23T06:07:46;11.75;;;10.55;;
64938;SDS011;51453;47.738;7.420;2022-07-23T06:10:12;10.35;;;9.25;;
64938;SDS011;51453;47.738;7.420;2022-07-23T06:12:37;15.38;;;10.43;;
64938;SDS011;51453;47.738;7.420;2022-07-23T06:15:03;11.48;;;10.27;;
64938;SDS011;51453;47.738;7.420;2022-07-23T06:17:29;11.43;;;10.23;;
64938;SDS011;51453;47.738;7.420;2022-07-23T06:19:55;13.20;;;10.07;;
64938;SDS011;51453;47.738;7.420;2022-07-23T06:22:21;11.23;;;10.10;;
64938;SDS011;51453;47.738;7.420;2022-07-23T06:24:47;11.93;;;9.82;;
64938;SDS011;51453;47.738;7.420;2022-07-23T06:27:13;14.10;;;10.13;;
64938;SDS011;51453;47.738;7.420;2022-07-23T06:29:39;12.52;;;10.07;;
64938;SDS011;51453;47.738;7.420;2022-07-23T06:32:05;11.32;;;9.38;;
64938;SDS011;51453;47.738;7.420;2022-07-23T06:34:32;14.20;;;9.20;;
64938;SDS011;51453;47.738;7.420;2022-07-23T06:36:58;9.95;;;8.60;;
64938;SDS011;51453;47.738;7.420;2022-07-23T06:39:24;9.55;;;8.32;;
64938;SDS011;51453;47.738;7.420;2022-07-23T06:41:50;11.07;;;9.13;;
64938;SDS011;51453;47.738;7.420;2022-07-23T06:44:16;9.20;;;7.85;;
64938;SDS011;51453;47.738;7.420;2022-07-23T06:46:42;9.25;;;7.65;;
64938;SDS011;51453;47.738;7.420;2022-07-23T06:49:08;11.02;;;8.07;;
64938;SDS011;51453;47.738;7.420;2022-07-23T06:51:34;11.45;;;8.00;;
64938;SDS011;51453;47.738;7.420;2022-07-23T06:54:00;8.85;;;7.65;;
64938;SDS011;51453;47.738;7.420;2022-07-23T06:56:26;9.15;;;7.90;;
64938;SDS011;51453;47.738;7.420;2022-07-23T06:58:52;11.65;;;7.85;;
64938;SDS011;51453;47.738;7.420;2022-07-23T07:01:17;10.63;;;8.10;;
64938;SDS011;51453;47.738;7.420;2022-07-23T07:03:43;8.90;;;8.00;;
64938;SDS011;51453;47.738;7.420;2022-07-23T07:06:09;9.65;;;8.07;;
64938;SDS011;51453;47.738;7.420;2022-07-23T07:08:35;10.32;;;8.30;;
64938;SDS011;51453;47.738;7.420;2022-07-23T07:11:01;9.10;;;8.10;;
64938;SDS011;51453;47.738;7.420;2022-07-23T07:13:27;9.65;;;8.65;;
64938;SDS011;51453;47.738;7.420;2022-07-23T07:15:53;10.73;;;8.20;;
64938;SDS011;51453;47.738;7.420;2022-07-23T07:18:19;9.93;;;8.45;;
64938;SDS011;51453;47.738;7.420;2022-07-23T07:20:45;10.93;;;8.85;;
64938;SDS011;51453;47.738;7.420;2022-07-23T07:23:11;15.35;;;9.18;;
64938;SDS011;51453;47.738;7.420;2022-07-23T07:25:37;10.05;;;8.77;;
64938;SDS011;51453;47.738;7.420;2022-07-23T07:28:03;12.18;;;9.25;;
64938;SDS011;51453;47.738;7.420;2022-07-23T07:30:29;10.65;;;9.40;;
64938;SDS011;51453;47.738;7.420;2022-07-23T07:32:55;12.60;;;9.60;;
64938;SDS011;51453;47.738;7.420;2022-07-23T07:35:20;10.15;;;9.15;;
64938;SDS011;51453;47.738;7.420;2022-07-23T07:37:46;11.70;;;9.43;;
64938;SDS011;51453;47.738;7.420;2022-07-23T07:40:12;11.13;;;9.02;;
64938;SDS011;51453;47.738;7.420;2022-07-23T07:42:47;10.07;;;9.07;;
64938;SDS011;51453;47.738;7.420;2022-07-23T07:45:15;12.98;;;9.40;;
64938;SDS011;51453;47.738;7.420;2022-07-23T07:47:41;11.10;;;8.90;;
64938;SDS011;51453;47.738;7.420;2022-07-23T07:50:07;13.15;;;8.90;;
64938;SDS011;51453;47.738;7.420;2022-07-23T07:52:36;10.40;;;9.40;;
64938;SDS011;51453;47.738;7.420;2022-07-23T07:55:03;11.73;;;8.98;;
64938;SDS011;51453;47.738;7.420;2022-07-23T07:57:29;9.48;;;8.55;;
64938;SDS011;51453;47.738;7.420;2022-07-23T07:59:55;11.32;;;8.00;;
64938;SDS011;51453;47.738;7.420;2022-07-23T08:02:21;13.40;;;8.52;;
64938;SDS011;51453;47.738;7.420;2022-07-23T08:04:46;9.93;;;8.15;;
64938;SDS011;51453;47.738;7.420;2022-07-23T08:07:13;11.60;;;7.93;;
64938;SDS011;51453;47.738;7.420;2022-07-23T08:09:39;9.63;;;7.95;;
64938;SDS011;51453;47.738;7.420;2022-07-23T08:12:05;9.13;;;8.18;;
64938;SDS011;51453;47.738;7.420;2022-07-23T08:14:31;11.23;;;8.90;;
64938;SDS011;51453;47.738;7.420;2022-07-23T08:16:57;9.02;;;7.90;;
64938;SDS011;51453;47.738;7.420;2022-07-23T08:19:22;10.02;;;8.52;;
64938;SDS011;51453;47.738;7.420;2022-07-23T08:21:48;11.82;;;8.73;;
64938;SDS011;51453;47.738;7.420;2022-07-23T08:24:14;9.32;;;8.40;;
64938;SDS011;51453;47.738;7.420;2022-07-23T08:26:40;14.57;;;12.73;;
64938;SDS011;51453;47.738;7.420;2022-07-23T08:29:05;16.65;;;9.30;;
64938;SDS011;51453;47.738;7.420;2022-07-23T08:31:31;10.80;;;9.07;;
64938;SDS011;51453;47.738;7.420;2022-07-23T08:33:58;10.70;;;9.60;;
64938;SDS011;51453;47.738;7.420;2022-07-23T08:36:24;13.00;;;10.18;;
64938;SDS011;51453;47.738;7.420;2022-07-23T08:38:52;12.63;;;10.07;;
64938;SDS011;51453;47.738;7.420;2022-07-23T08:41:19;10.65;;;9.23;;
64938;SDS011;51453;47.738;7.420;2022-07-23T08:43:45;12.35;;;9.98;;
64938;SDS011;51453;47.738;7.420;2022-07-23T08:46:11;13.88;;;11.75;;
64938;SDS011;51453;47.738;7.420;2022-07-23T08:48:39;11.32;;;9.95;;
64938;SDS011;51453;47.738;7.420;2022-07-23T08:51:05;10.35;;;9.30;;
64938;SDS011;51453;47.738;7.420;2022-07-23T08:53:32;12.60;;;10.02;;
64938;SDS011;51453;47.738;7.420;2022-07-23T08:56:02;11.90;;;9.63;;
64938;SDS011;51453;47.738;7.420;2022-07-23T08:58:28;10.63;;;9.52;;
64938;SDS011;51453;47.738;7.420;2022-07-23T09:00:56;13.15;;;10.75;;
64938;SDS011;51453;47.738;7.420;2022-07-23T09:03:23;13.85;;;9.65;;
64938;SDS011;51453;47.738;7.420;2022-07-23T09:05:53;11.07;;;9.82;;
64938;SDS011;51453;47.738;7.420;2022-07-23T09:08:24;10.60;;;9.45;;
64938;SDS011;51453;47.738;7.420;2022-07-23T09:10:59;11.13;;;9.95;;
64938;SDS011;51453;47.738;7.420;2022-07-23T09:16:12;14.38;;;10.23;;
64938;SDS011;51453;47.738;7.420;2022-07-23T09:18:47;11.25;;;8.60;;
64938;SDS011;51453;47.738;7.420;2022-07-23T09:21:16;10.82;;;9.70;;
64938;SDS011;51453;47.738;7.420;2022-07-23T09:23:57;10.63;;;9.52;;
64938;SDS011;51453;47.738;7.420;2022-07-23T09:34:24;10.48;;;8.98;;
64938;SDS011;51453;47.738;7.420;2022-07-23T09:36:53;12.65;;;9.43;;
64938;SDS011;51453;47.738;7.420;2022-07-23T09:41:59;10.30;;;8.13;;
64938;SDS011;51453;47.738;7.420;2022-07-23T09:44:40;10.85;;;8.80;;
64938;SDS011;51453;47.738;7.420;2022-07-23T09:47:08;9.52;;;8.60;;
64938;SDS011;51453;47.738;7.420;2022-07-23T09:49:33;10.45;;;8.48;;
64938;SDS011;51453;47.738;7.420;2022-07-23T09:51:59;10.63;;;8.80;;
64938;SDS011;51453;47.738;7.420;2022-07-23T09:54:39;12.88;;;8.57;;
64938;SDS011;51453;47.738;7.420;2022-07-23T09:57:09;9.73;;;8.30;;
64938;SDS011;51453;47.738;7.420;2022-07-23T09:59:41;10.85;;;8.20;;
64938;SDS011;51453;47.738;7.420;2022-07-23T10:02:09;12.35;;;9.20;;
64938;SDS011;51453;47.738;7.420;2022-07-23T10:04:37;11.85;;;10.00;;
64938;SDS011;51453;47.738;7.420;2022-07-23T10:07:05;9.52;;;8.50;;
64938;SDS011;51453;47.738;7.420;2022-07-23T10:09:37;9.85;;;8.57;;
64938;SDS011;51453;47.738;7.420;2022-07-23T10:12:11;10.10;;;8.10;;
64938;SDS011;51453;47.738;7.420;2022-07-23T10:14:41;8.98;;;7.80;;
64938;SDS011;51453;47.738;7.420;2022-07-23T10:17:07;10.02;;;8.50;;
64938;SDS011;51453;47.738;7.420;2022-07-23T10:19:34;9.65;;;8.23;;
64938;SDS011;51453;47.738;7.420;2022-07-23T10:22:01;9.07;;;8.18;;
64938;SDS011;51453;47.738;7.420;2022-07-23T10:30:15;8.98;;;8.13;;
64938;SDS011;51453;47.738;7.420;2022-07-23T10:39:10;9.00;;;8.10;;
64938;SDS011;51453;47.738;7.420;2022-07-23T10:41:43;8.87;;;7.97;;
64938;SDS011;51453;47.738;7.420;2022-07-23T10:44:14;9.52;;;8.38;;
64938;SDS011;51453;47.738;7.420;2022-07-23T10:46:57;11.82;;;8.23;;
64938;SDS011;51453;47.738;7.420;2022-07-23T10:49:31;11.13;;;7.82;;
64938;SDS011;51453;47.738;7.420;2022-07-23T10:54:46;11.38;;;7.38;;
64938;SDS011;51453;47.738;7.420;2022-07-23T10:57:48;7.85;;;6.90;;
64938;SDS011;51453;47.738;7.420;2022-07-23T11:00:23;8.25;;;7.55;;
64938;SDS011;51453;47.738;7.420;2022-07-23T11:02:50;7.82;;;6.90;;
64938;SDS011;51453;47.738;7.420;2022-07-23T11:05:19;7.85;;;7.05;;
64938;SDS011;51453;47.738;7.420;2022-07-23T11:10:34;10.00;;;7.35;;
64938;SDS011;51453;47.738;7.420;2022-07-23T11:24:07;6.97;;;6.28;;
64938;SDS011;51453;47.738;7.420;2022-07-23T11:31:52;6.80;;;6.10;;
64938;SDS011;51453;47.738;7.420;2022-07-23T11:37:12;6.47;;;5.88;;
64938;SDS011;51453;47.738;7.420;2022-07-23T11:39:57;6.40;;;5.80;;
64938;SDS011;51453;47.738;7.420;2022-07-23T11:42:24;8.90;;;6.43;;
64938;SDS011;51453;47.738;7.420;2022-07-23T11:44:50;6.75;;;6.07;;
64938;SDS011;51453;47.738;7.420;2022-07-23T11:47:20;6.50;;;5.90;;
64938;SDS011;51453;47.738;7.420;2022-07-23T11:49:52;8.15;;;6.25;;
64938;SDS011;51453;47.738;7.420;2022-07-23T11:52:22;6.90;;;5.55;;
64938;SDS011;51453;47.738;7.420;2022-07-23T11:54:59;7.32;;;6.20;;
64938;SDS011;51453;47.738;7.420;2022-07-23T11:57:35;7.75;;;5.90;;
64938;SDS011;51453;47.738;7.420;2022-07-23T12:00:09;6.20;;;5.60;;
64938;SDS011;51453;47.738;7.420;2022-07-23T12:02:40;6.65;;;6.05;;
64938;SDS011;51453;47.738;7.420;2022-07-23T12:05:11;7.13;;;5.78;;
64938;SDS011;51453;47.738;7.420;2022-07-23T12:07:40;6.80;;;6.10;;
64938;SDS011;51453;47.738;7.420;2022-07-23T12:12:38;6.75;;;6.03;;
64938;SDS011;51453;47.738;7.420;2022-07-23T12:15:05;8.90;;;6.13;;
64938;SDS011;51453;47.738;7.420;2022-07-23T12:17:33;13.93;;;7.05;;
64938;SDS011;51453;47.738;7.420;2022-07-23T12:20:01;11.05;;;6.63;;
64938;SDS011;51453;47.738;7.420;2022-07-23T12:22:35;6.95;;;6.05;;
64938;SDS011;51453;47.738;7.420;2022-07-23T12:25:04;8.25;;;6.20;;
64938;SDS011;51453;47.738;7.420;2022-07-23T12:27:38;6.88;;;6.18;;
64938;SDS011;51453;47.738;7.420;2022-07-23T12:30:17;6.95;;;6.25;;
64938;SDS011;51453;47.738;7.420;2022-07-23T12:32:44;6.88;;;6.05;;
64938;SDS011;51453;47.738;7.420;2022-07-23T12:35:10;10.85;;;6.35;;
64938;SDS011;51453;47.738;7.420;2022-07-23T12:37:37;6.93;;;6.20;;
64938;SDS011;51453;47.738;7.420;2022-07-23T12:42:49;6.55;;;5.60;;
64938;SDS011;51453;47.738;7.420;2022-07-23T12:45:17;7.03;;;6.00;;
64938;SDS011;51453;47.738;7.420;2022-07-23T12:50:37;7.40;;;5.97;;
64938;SDS011;51453;47.738;7.420;2022-07-23T12:53:09;7.00;;;6.03;;
64938;SDS011;51453;47.738;7.420;2022-07-23T12:55:47;7.72;;;6.07;;
64938;SDS011;51453;47.738;7.420;2022-07-23T12:58:15;9.65;;;6.18;;
64938;SDS011;51453;47.738;7.420;2022-07-23T13:03:34;6.97;;;5.45;;
64938;SDS011;51453;47.738;7.420;2022-07-23T13:06:06;8.13;;;6.30;;
64938;SDS011;51453;47.738;7.420;2022-07-23T13:08:34;11.38;;;8.43;;
64938;SDS011;51453;47.738;7.420;2022-07-23T13:11:01;8.23;;;7.43;;
64938;SDS011;51453;47.738;7.420;2022-07-23T13:13:28;8.00;;;7.20;;
64938;SDS011;51453;47.738;7.420;2022-07-23T13:15:56;8.98;;;7.40;;
64938;SDS011;51453;47.738;7.420;2022-07-23T13:18:22;8.00;;;7.10;;
64938;SDS011;51453;47.738;7.420;2022-07-23T13:20:48;9.80;;;7.15;;
64938;SDS011;51453;47.738;7.420;2022-07-23T13:23:14;15.55;;;7.38;;
64938;SDS011;51453;47.738;7.420;2022-07-23T13:25:41;8.77;;;7.53;;
64938;SDS011;51453;47.738;7.420;2022-07-23T13:28:07;10.20;;;7.47;;
64938;SDS011;51453;47.738;7.420;2022-07-23T13:30:33;8.27;;;7.47;;
64938;SDS011;51453;47.738;7.420;2022-07-23T13:33:01;8.68;;;7.03;;
64938;SDS011;51453;47.738;7.420;2022-07-23T13:35:28;7.50;;;6.72;;
64938;SDS011;51453;47.738;7.420;2022-07-23T13:37:54;7.65;;;6.95;;
64938;SDS011;51453;47.738;7.420;2022-07-23T13:40:20;8.65;;;7.57;;
64938;SDS011;51453;47.738;7.420;2022-07-23T13:42:46;7.63;;;6.88;;
64938;SDS011;51453;47.738;7.420;2022-07-23T13:45:12;7.72;;;6.97;;
64938;SDS011;51453;47.738;7.420;2022-07-23T13:47:38;11.57;;;7.05;;
64938;SDS011;51453;47.738;7.420;2022-07-23T13:50:04;11.02;;;6.70;;
64938;SDS011;51453;47.738;7.420;2022-07-23T13:52:30;8.75;;;6.55;;
64938;SDS011;51453;47.738;7.420;2022-07-23T13:54:58;8.07;;;7.15;;
64938;SDS011;51453;47.738;7.420;2022-07-23T13:57:29;9.02;;;6.25;;
64938;SDS011;51453;47.738;7.420;2022-07-23T13:59:55;8.40;;;6.68;;
64938;SDS011;51453;47.738;7.420;2022-07-23T14:02:21;9.35;;;7.00;;
64938;SDS011;51453;47.738;7.420;2022-07-23T14:04:46;7.57;;;6.80;;
64938;SDS011;51453;47.738;7.420;2022-07-23T14:07:12;7.03;;;5.95;;
64938;SDS011;51453;47.738;7.420;2022-07-23T14:09:38;6.80;;;6.10;;
64938;SDS011;51453;47.738;7.420;2022-07-23T14:12:04;8.10;;;6.30;;
64938;SDS011;51453;47.738;7.420;2022-07-23T14:14:30;6.53;;;5.78;;
64938;SDS011;51453;47.738;7.420;2022-07-23T14:16:56;6.43;;;5.80;;
64938;SDS011;51453;47.738;7.420;2022-07-23T14:19:22;7.20;;;5.72;;
64938;SDS011;51453;47.738;7.420;2022-07-23T14:21:48;6.78;;;5.93;;
64938;SDS011;51453;47.738;7.420;2022-07-23T14:24:14;10.13;;;6.10;;
64938;SDS011;51453;47.738;7.420;2022-07-23T14:26:41;6.85;;;5.30;;
64938;SDS011;51453;47.738;7.420;2022-07-23T14:29:07;9.18;;;6.28;;
64938;SDS011;51453;47.738;7.420;2022-07-23T14:31:33;6.85;;;5.70;;
64938;SDS011;51453;47.738;7.420;2022-07-23T14:33:59;5.90;;;5.40;;
64938;SDS011;51453;47.738;7.420;2022-07-23T14:36:25;6.57;;;5.97;;
64938;SDS011;51453;47.738;7.420;2022-07-23T14:38:51;6.63;;;6.03;;
64938;SDS011;51453;47.738;7.420;2022-07-23T14:41:16;8.82;;;6.25;;
64938;SDS011;51453;47.738;7.420;2022-07-23T14:43:42;7.20;;;6.15;;
64938;SDS011;51453;47.738;7.420;2022-07-23T14:46:08;6.25;;;5.65;;
64938;SDS011;51453;47.738;7.420;2022-07-23T14:48:36;7.13;;;5.47;;
64938;SDS011;51453;47.738;7.420;2022-07-23T14:51:02;8.32;;;5.78;;
64938;SDS011;51453;47.738;7.420;2022-07-23T14:53:28;5.80;;;5.30;;
64938;SDS011;51453;47.738;7.420;2022-07-23T14:55:55;6.60;;;5.93;;
64938;SDS011;51453;47.738;7.420;2022-07-23T14:58:22;6.25;;;5.38;;
64938;SDS011;51453;47.738;7.420;2022-07-23T15:00:48;6.50;;;5.90;;
64938;SDS011;51453;47.738;7.420;2022-07-23T15:03:14;6.78;;;5.80;;
64938;SDS011;51453;47.738;7.420;2022-07-23T15:05:40;7.32;;;5.70;;
64938;SDS011;51453;47.738;7.420;2022-07-23T15:08:06;6.80;;;6.10;;
64938;SDS011;51453;47.738;7.420;2022-07-23T15:10:32;9.00;;;6.13;;
64938;SDS011;51453;47.738;7.420;2022-07-23T15:12:57;7.43;;;6.60;;
64938;SDS011;51453;47.738;7.420;2022-07-23T15:15:23;10.02;;;6.45;;
64938;SDS011;51453;47.738;7.420;2022-07-23T15:17:50;6.28;;;5.75;;
64938;SDS011;51453;47.738;7.420;2022-07-23T15:20:15;7.13;;;5.70;;
64938;SDS011;51453;47.738;7.420;2022-07-23T15:22:41;7.03;;;5.30;;
64938;SDS011;51453;47.738;7.420;2022-07-23T15:25:07;7.53;;;5.97;;
64938;SDS011;51453;47.738;7.420;2022-07-23T15:27:33;10.75;;;6.63;;
64938;SDS011;51453;47.738;7.420;2022-07-23T15:29:59;7.18;;;6.47;;
64938;SDS011;51453;47.738;7.420;2022-07-23T15:32:25;7.53;;;6.72;;
64938;SDS011;51453;47.738;7.420;2022-07-23T15:34:52;8.55;;;6.53;;
64938;SDS011;51453;47.738;7.420;2022-07-23T15:37:18;7.28;;;6.20;;